^^
Station Historical Data
Daily Summary for March 8, 2018 Units:  Both    English   Metric
« Previous Day
Next Day »
Daily Weekly Monthly Yearly Custom
  High: Low: Average:
Temperature: TemperatureF °F /  -17.8 °C 59.2 °F /  15.1 °C 69.7 °F /  20.9 °C
Dew Point: DewpointF °F /  -17.8 °C 51.4 °F /  10.8 °C 57.6 °F /  14.2 °C
Humidity: Humidity% 41% 68%
Wind Speed: WindSpeedMPHmph /  0km/h - 1.2mph /  1.9km/h
Wind Gust: WindSpeedGustMPHmph /  0km/h - -
Wind- - WSW
Pressure: PressureIn in /  0 hPa 29.70 in /  1005.6 hPa -
Precipitation: 0.00 in /  0 mm    
Historical Graphs
 
 
Tabular Data for March 8, 2018
Time Temperature Dew Point Pressure Wind Wind Speed Wind Gust Humidity Rainfall Rate (Hourly) solar Conditions
TemperatureF °F /  -17.8 °C DewpointF °F /  -17.8 °C PressureInin /  0hPa Calm     Humidity% HourlyPrecipInin /  0mm SolarRadiationWatts/m^2 W/m2 Conditions
00:04 63.1 °F /  17.3 °C 60.4 °F /  15.8 °C 29.80in /  1009hPa Calm   1.0mph /  1.6km/h 91% 0.01in /  0.25mm 0.0 W/m2
00:09 63.3 °F /  17.4 °C 61.0 °F /  16.1 °C 29.80in /  1009hPa Calm     92% 0.01in /  0.25mm 0.0 W/m2
00:14 63.3 °F /  17.4 °C 61.0 °F /  16.1 °C 29.80in /  1009hPa WSW 2.0mph /  3.2km/h 2.0mph /  3.2km/h 92% 0.01in /  0.25mm 0.0 W/m2
00:19 63.3 °F /  17.4 °C 61.0 °F /  16.1 °C 29.80in /  1009hPa Calm     92% 0.01in /  0.25mm 0.0 W/m2
00:25 63.3 °F /  17.4 °C 61.0 °F /  16.1 °C 29.80in /  1009hPa Calm   1.0mph /  1.6km/h 92% 0.01in /  0.25mm 0.0 W/m2
00:30 63.1 °F /  17.3 °C 60.4 °F /  15.8 °C 29.80in /  1009hPa WSW 0.9mph /  1.4km/h 3.0mph /  4.8km/h 91% 0.01in /  0.25mm 0.0 W/m2
00:35 63.1 °F /  17.3 °C 60.1 °F /  15.6 °C 29.80in /  1009hPa WSW 0.9mph /  1.4km/h 3.0mph /  4.8km/h 90% 0.01in /  0.25mm 0.0 W/m2
00:40 63.1 °F /  17.3 °C 60.1 °F /  15.6 °C 29.80in /  1009hPa WSW 2.9mph /  4.7km/h 3.0mph /  4.8km/h 90% 0.01in /  0.25mm 0.0 W/m2
00:45 63.1 °F /  17.3 °C 59.9 °F /  15.5 °C 29.80in /  1009hPa Calm     89% 0.01in /  0.25mm 0.0 W/m2
00:50 63.1 °F /  17.3 °C 59.9 °F /  15.5 °C 29.80in /  1009hPa Calm     89% 0.01in /  0.25mm 0.0 W/m2
00:55 63.1 °F /  17.3 °C 59.9 °F /  15.5 °C 29.80in /  1009hPa Calm     89% 0.01in /  0.25mm 0.0 W/m2
01:00 63.1 °F /  17.3 °C 59.9 °F /  15.5 °C 29.80in /  1009hPa Calm   1.0mph /  1.6km/h 89% 0.00in /  0mm 0.0 W/m2
01:06 63.1 °F /  17.3 °C 59.5 °F /  15.3 °C 29.80in /  1009hPa Calm   1.0mph /  1.6km/h 88% 0.00in /  0mm 0.0 W/m2
01:11 63.0 °F /  17.2 °C 59.4 °F /  15.2 °C 29.80in /  1009hPa Calm   1.0mph /  1.6km/h 88% 0.00in /  0mm 0.0 W/m2
01:17 63.0 °F /  17.2 °C 59.4 °F /  15.2 °C 29.80in /  1009hPa Calm   1.0mph /  1.6km/h 88% 0.00in /  0mm 0.0 W/m2
01:22 63.0 °F /  17.2 °C 59.4 °F /  15.2 °C 29.80in /  1009hPa WSW 0.9mph /  1.4km/h 2.0mph /  3.2km/h 88% 0.00in /  0mm 0.0 W/m2
01:27 63.0 °F /  17.2 °C 59.4 °F /  15.2 °C 29.80in /  1009hPa Calm     88% 0.00in /  0mm 0.0 W/m2
01:32 63.0 °F /  17.2 °C 59.4 °F /  15.2 °C 29.80in /  1009hPa Calm     88% 0.00in /  0mm 0.0 W/m2
01:37 62.8 °F /  17.1 °C 59.2 °F /  15.1 °C 29.80in /  1009hPa WSW 0.9mph /  1.4km/h 2.0mph /  3.2km/h 88% 0.00in /  0mm 0.0 W/m2
01:42 62.8 °F /  17.1 °C 59.2 °F /  15.1 °C 29.79in /  1008.7hPa Calm     88% 0.00in /  0mm 0.0 W/m2
01:47 62.8 °F /  17.1 °C 59.2 °F /  15.1 °C 29.79in /  1008.7hPa Calm     88% 0.00in /  0mm 0.0 W/m2
01:53 62.6 °F /  17 °C 59.0 °F /  15 °C 29.79in /  1008.7hPa Calm     88% 0.00in /  0mm 0.0 W/m2
01:58 62.4 °F /  16.9 °C 59.2 °F /  15.1 °C 29.79in /  1008.7hPa Calm     89% 0.00in /  0mm 0.0 W/m2
02:03 62.4 °F /  16.9 °C 59.2 °F /  15.1 °C 29.79in /  1008.7hPa Calm     89% 0.00in /  0mm 0.0 W/m2
02:08 62.4 °F /  16.9 °C 59.2 °F /  15.1 °C 29.79in /  1008.7hPa Calm     89% 0.00in /  0mm 0.0 W/m2
02:13 62.4 °F /  16.9 °C 59.2 °F /  15.1 °C 29.79in /  1008.7hPa Calm     89% 0.00in /  0mm 0.0 W/m2
02:18 62.2 °F /  16.8 °C 59.2 °F /  15.1 °C 29.79in /  1008.7hPa Calm     90% 0.00in /  0mm 0.0 W/m2
02:23 62.2 °F /  16.8 °C 59.2 °F /  15.1 °C 29.79in /  1008.7hPa Calm     90% 0.00in /  0mm 0.0 W/m2
02:28 62.2 °F /  16.8 °C 59.2 °F /  15.1 °C 29.78in /  1008.4hPa Calm     90% 0.00in /  0mm 0.0 W/m2
02:33 62.2 °F /  16.8 °C 59.2 °F /  15.1 °C 29.78in /  1008.4hPa Calm   1.0mph /  1.6km/h 90% 0.00in /  0mm 0.0 W/m2
02:39 62.2 °F /  16.8 °C 59.2 °F /  15.1 °C 29.78in /  1008.4hPa Calm     90% 0.00in /  0mm 0.0 W/m2
02:44 62.1 °F /  16.7 °C 59.2 °F /  15.1 °C 29.78in /  1008.4hPa Calm     90% 0.00in /  0mm 0.0 W/m2
02:50 62.1 °F /  16.7 °C 59.2 °F /  15.1 °C 29.78in /  1008.4hPa Calm     90% 0.00in /  0mm 0.0 W/m2
02:55 62.1 °F /  16.7 °C 59.2 °F /  15.1 °C 29.78in /  1008.4hPa Calm     90% 0.00in /  0mm 0.0 W/m2
03:00 62.1 °F /  16.7 °C 59.2 °F /  15.1 °C 29.77in /  1008hPa Calm     90% 0.00in /  0mm 0.0 W/m2
03:05 61.9 °F /  16.6 °C 59.2 °F /  15.1 °C 29.77in /  1008hPa Calm     91% 0.00in /  0mm 0.0 W/m2
03:10 61.9 °F /  16.6 °C 59.2 °F /  15.1 °C 29.77in /  1008hPa Calm     91% 0.00in /  0mm 0.0 W/m2
03:15 61.9 °F /  16.6 °C 59.2 °F /  15.1 °C 29.77in /  1008hPa Calm     91% 0.00in /  0mm 0.0 W/m2
03:20 61.7 °F /  16.5 °C 59.0 °F /  15 °C 29.77in /  1008hPa Calm     91% 0.00in /  0mm 0.0 W/m2
03:26 61.5 °F /  16.4 °C 58.8 °F /  14.9 °C 29.76in /  1007.7hPa Calm     91% 0.00in /  0mm 0.0 W/m2
03:31 61.3 °F /  16.3 °C 58.6 °F /  14.8 °C 29.77in /  1008hPa Calm     91% 0.00in /  0mm 0.0 W/m2
03:36 61.3 °F /  16.3 °C 59.0 °F /  15 °C 29.76in /  1007.7hPa Calm     92% 0.00in /  0mm 0.0 W/m2
03:41 61.2 °F /  16.2 °C 58.8 °F /  14.9 °C 29.77in /  1008hPa Calm     92% 0.00in /  0mm 0.0 W/m2
03:46 61.2 °F /  16.2 °C 58.8 °F /  14.9 °C 29.76in /  1007.7hPa Calm     92% 0.00in /  0mm 0.0 W/m2
03:51 61.2 °F /  16.2 °C 58.8 °F /  14.9 °C 29.76in /  1007.7hPa Calm     92% 0.00in /  0mm 0.0 W/m2
03:56 61.0 °F /  16.1 °C 58.6 °F /  14.8 °C 29.76in /  1007.7hPa Calm     92% 0.00in /  0mm 0.0 W/m2
04:01 61.0 °F /  16.1 °C 58.6 °F /  14.8 °C 29.76in /  1007.7hPa Calm     92% 0.00in /  0mm 0.0 W/m2
04:06 61.0 °F /  16.1 °C 58.6 °F /  14.8 °C 29.76in /  1007.7hPa Calm     92% 0.00in /  0mm 0.0 W/m2
04:12 60.8 °F /  16 °C 58.5 °F /  14.7 °C 29.77in /  1008hPa Calm     92% 0.00in /  0mm 0.0 W/m2
04:17 60.6 °F /  15.9 °C 58.3 °F /  14.6 °C 29.77in /  1008hPa Calm     92% 0.00in /  0mm 0.0 W/m2
04:22 60.6 °F /  15.9 °C 58.3 °F /  14.6 °C 29.77in /  1008hPa Calm     92% 0.00in /  0mm 0.0 W/m2
04:27 60.4 °F /  15.8 °C 58.1 °F /  14.5 °C 29.76in /  1007.7hPa Calm     92% 0.00in /  0mm 0.0 W/m2
04:32 60.3 °F /  15.7 °C 57.9 °F /  14.4 °C 29.76in /  1007.7hPa Calm     92% 0.00in /  0mm 0.0 W/m2
04:37 60.3 °F /  15.7 °C 57.9 °F /  14.4 °C 29.76in /  1007.7hPa Calm   1.0mph /  1.6km/h 92% 0.00in /  0mm 0.0 W/m2
04:42 60.1 °F /  15.6 °C 58.1 °F /  14.5 °C 29.76in /  1007.7hPa Calm   1.0mph /  1.6km/h 93% 0.00in /  0mm 0.0 W/m2
04:47 60.1 °F /  15.6 °C 57.7 °F /  14.3 °C 29.76in /  1007.7hPa Calm     92% 0.00in /  0mm 0.0 W/m2
04:52 59.9 °F /  15.5 °C 57.6 °F /  14.2 °C 29.76in /  1007.7hPa Calm     92% 0.00in /  0mm 0.0 W/m2
04:58 59.7 °F /  15.4 °C 57.4 °F /  14.1 °C 29.76in /  1007.7hPa Calm     92% 0.00in /  0mm 0.0 W/m2
05:03 59.7 °F /  15.4 °C 57.4 °F /  14.1 °C 29.76in /  1007.7hPa Calm     92% 0.00in /  0mm 0.0 W/m2
05:08 59.7 °F /  15.4 °C 57.7 °F /  14.3 °C 29.76in /  1007.7hPa Calm     93% 0.00in /  0mm 0.0 W/m2
05:13 59.5 °F /  15.3 °C 57.6 °F /  14.2 °C 29.76in /  1007.7hPa Calm     93% 0.00in /  0mm 0.0 W/m2
05:19 59.5 °F /  15.3 °C 57.6 °F /  14.2 °C 29.76in /  1007.7hPa Calm     93% 0.00in /  0mm 0.0 W/m2
05:24 59.5 °F /  15.3 °C 57.6 °F /  14.2 °C 29.76in /  1007.7hPa Calm     93% 0.00in /  0mm 0.0 W/m2
05:29 59.4 °F /  15.2 °C 57.4 °F /  14.1 °C 29.77in /  1008hPa Calm     93% 0.00in /  0mm 0.0 W/m2
05:34 59.4 °F /  15.2 °C 57.4 °F /  14.1 °C 29.77in /  1008hPa Calm     93% 0.00in /  0mm 0.0 W/m2
05:39 59.4 °F /  15.2 °C 57.4 °F /  14.1 °C 29.77in /  1008hPa Calm     93% 0.00in /  0mm 0.0 W/m2
05:45 59.4 °F /  15.2 °C 57.4 °F /  14.1 °C 29.77in /  1008hPa Calm     93% 0.00in /  0mm 0.0 W/m2
05:50 59.2 °F /  15.1 °C 57.2 °F /  14 °C 29.78in /  1008.4hPa Calm     93% 0.00in /  0mm 0.0 W/m2
05:55 59.2 °F /  15.1 °C 57.2 °F /  14 °C 29.78in /  1008.4hPa Calm     93% 0.00in /  0mm 0.0 W/m2
06:00 59.2 °F /  15.1 °C 57.4 °F /  14.1 °C 29.78in /  1008.4hPa Calm     94% 0.00in /  0mm 0.0 W/m2
06:05 59.4 °F /  15.2 °C 57.6 °F /  14.2 °C 29.78in /  1008.4hPa Calm     94% 0.00in /  0mm 0.0 W/m2
06:10 59.4 °F /  15.2 °C 57.6 °F /  14.2 °C 29.78in /  1008.4hPa Calm     94% 0.00in /  0mm 0.0 W/m2
06:15 59.4 °F /  15.2 °C 57.6 °F /  14.2 °C 29.78in /  1008.4hPa Calm     94% 0.00in /  0mm 0.0 W/m2
06:20 59.4 °F /  15.2 °C 57.6 °F /  14.2 °C 29.78in /  1008.4hPa Calm     94% 0.00in /  0mm 0.0 W/m2
06:25 59.5 °F /  15.3 °C 57.7 °F /  14.3 °C 29.79in /  1008.7hPa Calm     94% 0.00in /  0mm 0.0 W/m2
06:31 59.5 °F /  15.3 °C 57.7 °F /  14.3 °C 29.79in /  1008.7hPa Calm     94% 0.00in /  0mm 0.0 W/m2
06:36 59.5 °F /  15.3 °C 57.7 °F /  14.3 °C 29.79in /  1008.7hPa Calm     94% 0.00in /  0mm 0.0 W/m2
06:41 59.5 °F /  15.3 °C 57.6 °F /  14.2 °C 29.79in /  1008.7hPa Calm     93% 0.00in /  0mm 0.0 W/m2
06:46 59.5 °F /  15.3 °C 57.6 °F /  14.2 °C 29.78in /  1008.4hPa Calm   2.0mph /  3.2km/h 93% 0.00in /  0mm 0.0 W/m2
06:51 59.5 °F /  15.3 °C 57.6 °F /  14.2 °C 29.78in /  1008.4hPa Calm     93% 0.00in /  0mm 0.0 W/m2
06:56 59.5 °F /  15.3 °C 57.6 °F /  14.2 °C 29.78in /  1008.4hPa Calm   1.0mph /  1.6km/h 93% 0.00in /  0mm 0.0 W/m2
07:01 59.5 °F /  15.3 °C 57.6 °F /  14.2 °C 29.78in /  1008.4hPa Calm     93% 0.00in /  0mm 5.0 W/m2
07:06 59.5 °F /  15.3 °C 57.6 °F /  14.2 °C 29.79in /  1008.7hPa Calm     93% 0.00in /  0mm 9.0 W/m2
07:12 59.4 °F /  15.2 °C 57.4 °F /  14.1 °C 29.79in /  1008.7hPa Calm     93% 0.00in /  0mm 11.0 W/m2
07:17 59.4 °F /  15.2 °C 57.4 °F /  14.1 °C 29.79in /  1008.7hPa Calm     93% 0.00in /  0mm 14.0 W/m2
07:22 59.4 °F /  15.2 °C 57.4 °F /  14.1 °C 29.79in /  1008.7hPa Calm     93% 0.00in /  0mm 16.0 W/m2
07:27 59.5 °F /  15.3 °C 57.6 °F /  14.2 °C 29.79in /  1008.7hPa Calm     93% 0.00in /  0mm 25.0 W/m2
07:32 59.5 °F /  15.3 °C 57.7 °F /  14.3 °C 29.80in /  1009hPa Calm     94% 0.00in /  0mm 42.0 W/m2
07:37 59.7 °F /  15.4 °C 57.9 °F /  14.4 °C 29.80in /  1009hPa Calm     94% 0.00in /  0mm 51.0 W/m2
07:42 59.7 °F /  15.4 °C 57.9 °F /  14.4 °C 29.80in /  1009hPa Calm     94% 0.00in /  0mm 67.0 W/m2
07:47 60.1 °F /  15.6 °C 58.3 °F /  14.6 °C 29.80in /  1009hPa Calm     94% 0.00in /  0mm 63.0 W/m2
07:52 60.1 °F /  15.6 °C 58.3 °F /  14.6 °C 29.80in /  1009hPa Calm     94% 0.00in /  0mm 42.0 W/m2
07:58 60.3 °F /  15.7 °C 58.3 °F /  14.6 °C 29.80in /  1009hPa Calm     93% 0.00in /  0mm 26.0 W/m2
08:03 60.3 °F /  15.7 °C 58.3 °F /  14.6 °C 29.80in /  1009hPa Calm     93% 0.00in /  0mm 33.0 W/m2
08:09 60.4 °F /  15.8 °C 58.5 °F /  14.7 °C 29.80in /  1009hPa Calm     93% 0.00in /  0mm 25.0 W/m2
08:14 60.6 °F /  15.9 °C 58.3 °F /  14.6 °C 29.80in /  1009hPa Calm     92% 0.00in /  0mm 25.0 W/m2
08:19 60.6 °F /  15.9 °C 58.3 °F /  14.6 °C 29.80in /  1009hPa Calm     92% 0.00in /  0mm 26.0 W/m2
08:24 61.0 °F /  16.1 °C 58.6 °F /  14.8 °C 29.80in /  1009hPa Calm   2.0mph /  3.2km/h 92% 0.00in /  0mm 28.0 W/m2
08:29 61.2 °F /  16.2 °C 58.5 °F /  14.7 °C 29.80in /  1009hPa Calm   1.0mph /  1.6km/h 91% 0.00in /  0mm 28.0 W/m2
08:34 61.3 °F /  16.3 °C 58.5 °F /  14.7 °C 29.80in /  1009hPa Calm   2.0mph /  3.2km/h 90% 0.00in /  0mm 37.0 W/m2
08:39 61.5 °F /  16.4 °C 58.3 °F /  14.6 °C 29.80in /  1009hPa Calm     89% 0.00in /  0mm 35.0 W/m2
08:45 61.9 °F /  16.6 °C 58.3 °F /  14.6 °C 29.81in /  1009.4hPa Calm   2.0mph /  3.2km/h 88% 0.00in /  0mm 42.0 W/m2
08:50 62.1 °F /  16.7 °C 58.5 °F /  14.7 °C 29.81in /  1009.4hPa Calm     88% 0.00in /  0mm 60.0 W/m2
08:55 62.2 °F /  16.8 °C 57.9 °F /  14.4 °C 29.81in /  1009.4hPa Calm   2.0mph /  3.2km/h 86% 0.00in /  0mm 65.0 W/m2
09:00 62.8 °F /  17.1 °C 58.3 °F /  14.6 °C 29.81in /  1009.4hPa WSW 0.9mph /  1.4km/h 1.0mph /  1.6km/h 85% 0.00in /  0mm 90.0 W/m2
09:05 63.0 °F /  17.2 °C 58.1 °F /  14.5 °C 29.81in /  1009.4hPa Calm   3.0mph /  4.8km/h 84% 0.00in /  0mm 160.0 W/m2
09:10 63.7 °F /  17.6 °C 58.5 °F /  14.7 °C 29.81in /  1009.4hPa Calm   1.0mph /  1.6km/h 83% 0.00in /  0mm 163.0 W/m2
09:15 64.0 °F /  17.8 °C 58.8 °F /  14.9 °C 29.82in /  1009.7hPa Calm   4.0mph /  6.4km/h 83% 0.00in /  0mm 142.0 W/m2
09:20 64.8 °F /  18.2 °C 59.2 °F /  15.1 °C 29.82in /  1009.7hPa WNW 2.0mph /  3.2km/h 3.0mph /  4.8km/h 82% 0.00in /  0mm 207.0 W/m2
09:25 64.9 °F /  18.3 °C 59.0 °F /  15 °C 29.82in /  1009.7hPa Calm   1.0mph /  1.6km/h 81% 0.00in /  0mm 218.0 W/m2
09:31 65.1 °F /  18.4 °C 59.2 °F /  15.1 °C 29.81in /  1009.4hPa Calm   3.0mph /  4.8km/h 81% 0.00in /  0mm 265.0 W/m2
09:36 65.5 °F /  18.6 °C 59.5 °F /  15.3 °C 29.81in /  1009.4hPa Calm   1.0mph /  1.6km/h 81% 0.00in /  0mm 696.0 W/m2
09:41 66.0 °F /  18.9 °C 59.7 °F /  15.4 °C 29.81in /  1009.4hPa Calm   3.0mph /  4.8km/h 80% 0.00in /  0mm 810.0 W/m2
09:46 66.7 °F /  19.3 °C 59.7 °F /  15.4 °C 29.82in /  1009.7hPa SW 2.9mph /  4.7km/h 6.0mph /  9.7km/h 78% 0.00in /  0mm 810.0 W/m2
09:51 66.9 °F /  19.4 °C 59.5 °F /  15.3 °C 29.82in /  1009.7hPa Calm   3.0mph /  4.8km/h 77% 0.00in /  0mm 221.0 W/m2
09:56 67.1 °F /  19.5 °C 59.7 °F /  15.4 °C 29.82in /  1009.7hPa Calm   2.0mph /  3.2km/h 77% 0.00in /  0mm 306.0 W/m2
10:01 67.5 °F /  19.7 °C 59.5 °F /  15.3 °C 29.82in /  1009.7hPa Calm   3.0mph /  4.8km/h 76% 0.00in /  0mm 701.0 W/m2
10:06 68.2 °F /  20.1 °C 59.9 °F /  15.5 °C 29.82in /  1009.7hPa WNW 0.9mph /  1.4km/h 3.0mph /  4.8km/h 75% 0.00in /  0mm 675.0 W/m2
10:11 68.7 °F /  20.4 °C 60.1 °F /  15.6 °C 29.82in /  1009.7hPa SW 4.0mph /  6.4km/h 4.0mph /  6.4km/h 74% 0.00in /  0mm 457.0 W/m2
10:16 69.1 °F /  20.6 °C 59.7 °F /  15.4 °C 29.81in /  1009.4hPa Calm   2.0mph /  3.2km/h 72% 0.00in /  0mm 884.0 W/m2
10:21 69.4 °F /  20.8 °C 60.4 °F /  15.8 °C 29.81in /  1009.4hPa NNW 0.9mph /  1.4km/h 2.0mph /  3.2km/h 73% 0.00in /  0mm 288.0 W/m2
10:27 70.0 °F /  21.1 °C 60.1 °F /  15.6 °C 29.81in /  1009.4hPa Calm   3.0mph /  4.8km/h 71% 0.00in /  0mm 826.0 W/m2
10:32 70.5 °F /  21.4 °C 60.3 °F /  15.7 °C 29.81in /  1009.4hPa Calm   2.0mph /  3.2km/h 70% 0.00in /  0mm 867.0 W/m2
10:37 71.1 °F /  21.7 °C 59.9 °F /  15.5 °C 29.81in /  1009.4hPa Calm   1.0mph /  1.6km/h 68% 0.00in /  0mm 870.0 W/m2
10:42 71.8 °F /  22.1 °C 61.0 °F /  16.1 °C 29.81in /  1009.4hPa Calm   5.0mph /  8km/h 69% 0.00in /  0mm 925.0 W/m2
10:47 72.1 °F /  22.3 °C 60.6 °F /  15.9 °C 29.81in /  1009.4hPa West 4.0mph /  6.4km/h 4.0mph /  6.4km/h 67% 0.00in /  0mm 1018.0 W/m2
10:52 72.1 °F /  22.3 °C 60.6 °F /  15.9 °C 29.81in /  1009.4hPa West 0.9mph /  1.4km/h 2.0mph /  3.2km/h 67% 0.00in /  0mm 958.0 W/m2
10:57 72.7 °F /  22.6 °C 60.6 °F /  15.9 °C 29.81in /  1009.4hPa WSW 0.9mph /  1.4km/h 3.0mph /  4.8km/h 66% 0.00in /  0mm 962.0 W/m2
11:02 73.0 °F /  22.8 °C 60.6 °F /  15.9 °C 29.81in /  1009.4hPa Calm   3.0mph /  4.8km/h 65% 0.00in /  0mm 1093.0 W/m2
11:08 73.2 °F /  22.9 °C 60.8 °F /  16 °C 29.81in /  1009.4hPa West 0.9mph /  1.4km/h 3.0mph /  4.8km/h 65% 0.00in /  0mm 1093.0 W/m2
11:13 73.6 °F /  23.1 °C 60.6 °F /  15.9 °C 29.81in /  1009.4hPa NE 0.9mph /  1.4km/h 3.0mph /  4.8km/h 64% 0.00in /  0mm 1100.0 W/m2
11:18 74.1 °F /  23.4 °C 60.8 °F /  16 °C 29.81in /  1009.4hPa Calm   1.0mph /  1.6km/h 63% 0.00in /  0mm 329.0 W/m2
11:23 74.5 °F /  23.6 °C 61.5 °F /  16.4 °C 29.81in /  1009.4hPa Calm   1.0mph /  1.6km/h 64% 0.00in /  0mm 1072.0 W/m2
11:28 74.5 °F /  23.6 °C 60.6 °F /  15.9 °C 29.81in /  1009.4hPa Calm   1.0mph /  1.6km/h 62% 0.00in /  0mm 230.0 W/m2
11:33 74.7 °F /  23.7 °C 60.8 °F /  16 °C 29.80in /  1009hPa Calm   3.0mph /  4.8km/h 62% 0.00in /  0mm 253.0 W/m2
11:38 74.7 °F /  23.7 °C 60.8 °F /  16 °C 29.80in /  1009hPa WSW 2.9mph /  4.7km/h 4.0mph /  6.4km/h 62% 0.00in /  0mm 1027.0 W/m2
11:43 74.8 °F /  23.8 °C 60.4 °F /  15.8 °C 29.80in /  1009hPa Calm   3.0mph /  4.8km/h 61% 0.00in /  0mm 111.0 W/m2
11:48 74.7 °F /  23.7 °C 59.9 °F /  15.5 °C 29.80in /  1009hPa Calm   1.0mph /  1.6km/h 60% 0.00in /  0mm 1072.0 W/m2
11:53 75.0 °F /  23.9 °C 59.7 °F /  15.4 °C 29.80in /  1009hPa West 0.9mph /  1.4km/h 1.0mph /  1.6km/h 59% 0.00in /  0mm 1090.0 W/m2
11:59 75.2 °F /  24 °C 59.9 °F /  15.5 °C 29.79in /  1008.7hPa Calm   2.0mph /  3.2km/h 59% 0.00in /  0mm 1083.0 W/m2
12:04 75.7 °F /  24.3 °C 60.8 °F /  16 °C 29.79in /  1008.7hPa NNW 4.9mph /  7.9km/h 6.0mph /  9.7km/h 60% 0.00in /  0mm 564.0 W/m2
12:09 76.3 °F /  24.6 °C 60.4 °F /  15.8 °C 29.79in /  1008.7hPa NW 0.9mph /  1.4km/h 5.0mph /  8km/h 58% 0.00in /  0mm 1053.0 W/m2
12:14 76.6 °F /  24.8 °C 60.3 °F /  15.7 °C 29.79in /  1008.7hPa Calm   3.0mph /  4.8km/h 57% 0.00in /  0mm 1042.0 W/m2
12:20 77.5 °F /  25.3 °C 60.6 °F /  15.9 °C 29.79in /  1008.7hPa North 0.9mph /  1.4km/h 7.0mph /  11.3km/h 56% 0.00in /  0mm 1056.0 W/m2
12:25 78.4 °F /  25.8 °C 60.4 °F /  15.8 °C 29.78in /  1008.4hPa North 4.0mph /  6.4km/h 6.0mph /  9.7km/h 54% 0.00in /  0mm 1086.0 W/m2
12:30 79.0 °F /  26.1 °C 60.4 °F /  15.8 °C 29.78in /  1008.4hPa Calm   3.0mph /  4.8km/h 53% 0.00in /  0mm 1081.0 W/m2
12:35 79.3 °F /  26.3 °C 60.3 °F /  15.7 °C 29.78in /  1008.4hPa SSW 0.9mph /  1.4km/h 2.0mph /  3.2km/h 52% 0.00in /  0mm 1097.0 W/m2
12:41 79.5 °F /  26.4 °C 59.7 °F /  15.4 °C 29.78in /  1008.4hPa NW 0.9mph /  1.4km/h 3.0mph /  4.8km/h 51% 0.00in /  0mm 1157.0 W/m2
12:46 79.9 °F /  26.6 °C 60.1 °F /  15.6 °C 29.78in /  1008.4hPa West 2.9mph /  4.7km/h 7.0mph /  11.3km/h 51% 0.00in /  0mm 1278.0 W/m2
12:51 79.5 °F /  26.4 °C 60.4 °F /  15.8 °C 29.78in /  1008.4hPa SW 2.9mph /  4.7km/h 6.0mph /  9.7km/h 52% 0.00in /  0mm 1241.0 W/m2
12:56 79.0 °F /  26.1 °C 59.9 °F /  15.5 °C 29.78in /  1008.4hPa NNW 4.9mph /  7.9km/h 5.0mph /  8km/h 52% 0.00in /  0mm 295.0 W/m2
13:01 79.3 °F /  26.3 °C 60.3 °F /  15.7 °C 29.78in /  1008.4hPa North 4.0mph /  6.4km/h 6.0mph /  9.7km/h 52% 0.00in /  0mm 1148.0 W/m2
13:06 79.9 °F /  26.6 °C 60.1 °F /  15.6 °C 29.77in /  1008hPa West 2.0mph /  3.2km/h 6.0mph /  9.7km/h 51% 0.00in /  0mm 1134.0 W/m2
13:11 79.5 °F /  26.4 °C 60.4 °F /  15.8 °C 29.77in /  1008hPa Calm   2.0mph /  3.2km/h 52% 0.00in /  0mm 204.0 W/m2
13:16 79.2 °F /  26.2 °C 60.6 °F /  15.9 °C 29.77in /  1008hPa ENE 4.0mph /  6.4km/h 4.0mph /  6.4km/h 53% 0.00in /  0mm 202.0 W/m2
13:21 79.2 °F /  26.2 °C 60.1 °F /  15.6 °C 29.77in /  1008hPa Calm   6.0mph /  9.7km/h 52% 0.00in /  0mm 1076.0 W/m2
13:26 79.2 °F /  26.2 °C 60.6 °F /  15.9 °C 29.76in /  1007.7hPa SW 4.0mph /  6.4km/h 8.0mph /  12.9km/h 53% 0.00in /  0mm 1116.0 W/m2
13:32 79.3 °F /  26.3 °C 60.8 °F /  16 °C 29.76in /  1007.7hPa Calm   2.0mph /  3.2km/h 53% 0.00in /  0mm 1116.0 W/m2
13:37 80.1 °F /  26.7 °C 60.3 °F /  15.7 °C 29.76in /  1007.7hPa NW 0.9mph /  1.4km/h 6.0mph /  9.7km/h 51% 0.00in /  0mm 1063.0 W/m2
13:43 80.8 °F /  27.1 °C 61.0 °F /  16.1 °C 29.76in /  1007.7hPa North 4.0mph /  6.4km/h 5.0mph /  8km/h 51% 0.00in /  0mm 1046.0 W/m2
13:48 81.3 °F /  27.4 °C 61.0 °F /  16.1 °C 29.75in /  1007.3hPa NE 2.9mph /  4.7km/h 6.0mph /  9.7km/h 50% 0.00in /  0mm 1041.0 W/m2
13:53 81.5 °F /  27.5 °C 61.0 °F /  16.1 °C 29.75in /  1007.3hPa NNW 2.9mph /  4.7km/h 4.0mph /  6.4km/h 50% 0.00in /  0mm 1034.0 W/m2
13:58 81.7 °F /  27.6 °C 60.6 °F /  15.9 °C 29.75in /  1007.3hPa SSW 2.0mph /  3.2km/h 8.0mph /  12.9km/h 49% 0.00in /  0mm 1049.0 W/m2
14:03 81.3 °F /  27.4 °C 60.3 °F /  15.7 °C 29.75in /  1007.3hPa SW 2.9mph /  4.7km/h 5.0mph /  8km/h 49% 0.00in /  0mm 199.0 W/m2
14:08 81.3 °F /  27.4 °C 59.7 °F /  15.4 °C 29.74in /  1007hPa Calm   6.0mph /  9.7km/h 48% 0.00in /  0mm 1037.0 W/m2
14:13 81.7 °F /  27.6 °C 60.6 °F /  15.9 °C 29.74in /  1007hPa NNE 2.9mph /  4.7km/h 4.0mph /  6.4km/h 49% 0.00in /  0mm 1023.0 W/m2
14:18 82.2 °F /  27.9 °C 60.6 °F /  15.9 °C 29.74in /  1007hPa Calm   5.0mph /  8km/h 48% 0.00in /  0mm 1007.0 W/m2
14:23 82.6 °F /  28.1 °C 60.3 °F /  15.7 °C 29.73in /  1006.7hPa North 0.9mph /  1.4km/h 10.0mph /  16.1km/h 47% 0.00in /  0mm 1016.0 W/m2
14:29 82.8 °F /  28.2 °C 59.9 °F /  15.5 °C 29.73in /  1006.7hPa North 2.9mph /  4.7km/h 8.0mph /  12.9km/h 46% 0.00in /  0mm 425.0 W/m2
14:34 82.8 °F /  28.2 °C 60.4 °F /  15.8 °C 29.73in /  1006.7hPa WSW 2.0mph /  3.2km/h 8.0mph /  12.9km/h 47% 0.00in /  0mm 930.0 W/m2
14:39 82.4 °F /  28 °C 59.5 °F /  15.3 °C 29.72in /  1006.3hPa NE 2.9mph /  4.7km/h 7.0mph /  11.3km/h 46% 0.00in /  0mm 949.0 W/m2
14:44 82.2 °F /  27.9 °C 59.4 °F /  15.2 °C 29.72in /  1006.3hPa WSW 2.0mph /  3.2km/h 2.0mph /  3.2km/h 46% 0.00in /  0mm 181.0 W/m2
14:49 82.4 °F /  28 °C 58.3 °F /  14.6 °C 29.72in /  1006.3hPa South 2.0mph /  3.2km/h 2.0mph /  3.2km/h 44% 0.00in /  0mm 877.0 W/m2
14:54 82.0 °F /  27.8 °C 58.6 °F /  14.8 °C 29.72in /  1006.3hPa WNW 2.0mph /  3.2km/h 4.0mph /  6.4km/h 45% 0.00in /  0mm 155.0 W/m2
14:59 81.3 °F /  27.4 °C 59.2 °F /  15.1 °C 29.72in /  1006.3hPa Calm   1.0mph /  1.6km/h 47% 0.00in /  0mm 125.0 W/m2
15:04 81.3 °F /  27.4 °C 58.6 °F /  14.8 °C 29.72in /  1006.3hPa Calm   10.0mph /  16.1km/h 46% 0.00in /  0mm 912.0 W/m2
15:10 81.7 °F /  27.6 °C 59.5 °F /  15.3 °C 29.72in /  1006.3hPa SW 4.0mph /  6.4km/h 7.0mph /  11.3km/h 47% 0.00in /  0mm 889.0 W/m2
15:15 81.7 °F /  27.6 °C 58.8 °F /  14.9 °C 29.72in /  1006.3hPa Calm   4.0mph /  6.4km/h 46% 0.00in /  0mm 153.0 W/m2
15:20 81.3 °F /  27.4 °C 58.6 °F /  14.8 °C 29.71in /  1006hPa West 2.9mph /  4.7km/h 9.0mph /  14.5km/h 46% 0.00in /  0mm 904.0 W/m2
15:25 81.7 °F /  27.6 °C 59.5 °F /  15.3 °C 29.71in /  1006hPa WNW 4.9mph /  7.9km/h 5.0mph /  8km/h 47% 0.00in /  0mm 891.0 W/m2
15:30 82.0 °F /  27.8 °C 59.2 °F /  15.1 °C 29.71in /  1006hPa WSW 0.9mph /  1.4km/h 4.0mph /  6.4km/h 46% 0.00in /  0mm 860.0 W/m2
15:35 82.0 °F /  27.8 °C 57.9 °F /  14.4 °C 29.71in /  1006hPa SSW 4.0mph /  6.4km/h 10.0mph /  16.1km/h 44% 0.00in /  0mm 817.0 W/m2
15:40 81.9 °F /  27.7 °C 59.0 °F /  15 °C 29.71in /  1006hPa SW 2.0mph /  3.2km/h 4.0mph /  6.4km/h 46% 0.00in /  0mm 123.0 W/m2
15:45 81.1 °F /  27.3 °C 57.7 °F /  14.3 °C 29.70in /  1005.6hPa West 8.9mph /  14.3km/h 10.0mph /  16.1km/h 45% 0.00in /  0mm 160.0 W/m2
15:50 81.1 °F /  27.3 °C 57.7 °F /  14.3 °C 29.70in /  1005.6hPa West 2.9mph /  4.7km/h 10.0mph /  16.1km/h 45% 0.00in /  0mm 775.0 W/m2
15:55 81.3 °F /  27.4 °C 57.9 °F /  14.4 °C 29.70in /  1005.6hPa SSW 4.0mph /  6.4km/h 9.0mph /  14.5km/h 45% 0.00in /  0mm 759.0 W/m2
16:01 81.9 °F /  27.7 °C 58.5 °F /  14.7 °C 29.70in /  1005.6hPa Calm   7.0mph /  11.3km/h 45% 0.00in /  0mm 759.0 W/m2
16:06 82.4 °F /  28 °C 59.0 °F /  15 °C 29.70in /  1005.6hPa WSW 4.0mph /  6.4km/h 7.0mph /  11.3km/h 45% 0.00in /  0mm 761.0 W/m2
16:11 82.6 °F /  28.1 °C 58.5 °F /  14.7 °C 29.70in /  1005.6hPa WNW 0.9mph /  1.4km/h 9.0mph /  14.5km/h 44% 0.00in /  0mm 715.0 W/m2
16:16 82.6 °F /  28.1 °C 59.0 °F /  15 °C 29.70in /  1005.6hPa West 6.0mph /  9.7km/h 9.0mph /  14.5km/h 45% 0.00in /  0mm 661.0 W/m2
16:21 82.6 °F /  28.1 °C 59.0 °F /  15 °C 29.70in /  1005.6hPa SSW 4.9mph /  7.9km/h 9.0mph /  14.5km/h 45% 0.00in /  0mm 657.0 W/m2
16:26 82.2 °F /  27.9 °C 58.8 °F /  14.9 °C 29.70in /  1005.6hPa WSW 4.9mph /  7.9km/h 7.0mph /  11.3km/h 45% 0.00in /  0mm 656.0 W/m2
16:31 81.9 °F /  27.7 °C 58.5 °F /  14.7 °C 29.70in /  1005.6hPa SW 4.9mph /  7.9km/h 13.0mph /  20.9km/h 45% 0.00in /  0mm 638.0 W/m2
16:36 82.0 °F /  27.8 °C 58.6 °F /  14.8 °C 29.70in /  1005.6hPa WNW 4.9mph /  7.9km/h 9.0mph /  14.5km/h 45% 0.00in /  0mm 612.0 W/m2
16:41 82.0 °F /  27.8 °C 57.9 °F /  14.4 °C 29.70in /  1005.6hPa SSW 8.9mph /  14.3km/h 12.0mph /  19.3km/h 44% 0.00in /  0mm 568.0 W/m2
16:47 81.9 °F /  27.7 °C 57.7 °F /  14.3 °C 29.70in /  1005.6hPa WSW 6.9mph /  11.1km/h 9.0mph /  14.5km/h 44% 0.00in /  0mm 538.0 W/m2
16:52 81.7 °F /  27.6 °C 57.6 °F /  14.2 °C 29.70in /  1005.6hPa WNW 6.9mph /  11.1km/h 10.0mph /  16.1km/h 44% 0.00in /  0mm 520.0 W/m2
16:57 81.7 °F /  27.6 °C 57.6 °F /  14.2 °C 29.70in /  1005.6hPa WSW 4.0mph /  6.4km/h 10.0mph /  16.1km/h 44% 0.00in /  0mm 497.0 W/m2
17:02 81.5 °F /  27.5 °C 56.8 °F /  13.8 °C 29.70in /  1005.6hPa SW 8.9mph /  14.3km/h 11.0mph /  17.7km/h 43% 0.00in /  0mm 476.0 W/m2
17:07 81.1 °F /  27.3 °C 57.2 °F /  14 °C 29.70in /  1005.6hPa WSW 4.9mph /  7.9km/h 10.0mph /  16.1km/h 44% 0.00in /  0mm 455.0 W/m2
17:12 81.1 °F /  27.3 °C 57.2 °F /  14 °C 29.70in /  1005.6hPa South 6.0mph /  9.7km/h 7.0mph /  11.3km/h 44% 0.00in /  0mm 436.0 W/m2
17:17 81.0 °F /  27.2 °C 56.3 °F /  13.5 °C 29.70in /  1005.6hPa West 8.1mph /  13km/h 10.0mph /  16.1km/h 43% 0.00in /  0mm 415.0 W/m2
17:22 81.1 °F /  27.3 °C 56.5 °F /  13.6 °C 29.70in /  1005.6hPa SW 8.1mph /  13km/h 9.0mph /  14.5km/h 43% 0.00in /  0mm 394.0 W/m2
17:27 81.1 °F /  27.3 °C 56.5 °F /  13.6 °C 29.70in /  1005.6hPa West 4.9mph /  7.9km/h 5.0mph /  8km/h 43% 0.00in /  0mm 376.0 W/m2
17:33 81.0 °F /  27.2 °C 55.8 °F /  13.2 °C 29.70in /  1005.6hPa SW 4.9mph /  7.9km/h 10.0mph /  16.1km/h 42% 0.00in /  0mm 357.0 W/m2
17:38 81.0 °F /  27.2 °C 55.8 °F /  13.2 °C 29.70in /  1005.6hPa West 8.1mph /  13km/h 9.0mph /  14.5km/h 42% 0.00in /  0mm 338.0 W/m2
17:43 81.0 °F /  27.2 °C 55.0 °F /  12.8 °C 29.70in /  1005.6hPa West 2.0mph /  3.2km/h 10.0mph /  16.1km/h 41% 0.00in /  0mm 315.0 W/m2
17:48 81.0 °F /  27.2 °C 56.3 °F /  13.5 °C 29.70in /  1005.6hPa West 6.0mph /  9.7km/h 10.0mph /  16.1km/h 43% 0.00in /  0mm 294.0 W/m2
17:53 80.6 °F /  27 °C 56.1 °F /  13.4 °C 29.70in /  1005.6hPa WSW 4.0mph /  6.4km/h 9.0mph /  14.5km/h 43% 0.00in /  0mm 274.0 W/m2
17:58 80.4 °F /  26.9 °C 56.5 °F /  13.6 °C 29.70in /  1005.6hPa WSW 4.9mph /  7.9km/h 10.0mph /  16.1km/h 44% 0.00in /  0mm 253.0 W/m2
18:03 80.4 °F /  26.9 °C 56.5 °F /  13.6 °C 29.70in /  1005.6hPa SSW 4.9mph /  7.9km/h 10.0mph /  16.1km/h 44% 0.00in /  0mm 234.0 W/m2
18:08 80.2 °F /  26.8 °C 55.0 °F /  12.8 °C 29.70in /  1005.6hPa WSW 4.0mph /  6.4km/h 9.0mph /  14.5km/h 42% 0.00in /  0mm 213.0 W/m2
18:13 80.1 °F /  26.7 °C 56.1 °F /  13.4 °C 29.70in /  1005.6hPa SSE 6.0mph /  9.7km/h 9.0mph /  14.5km/h 44% 0.00in /  0mm 193.0 W/m2
18:19 79.9 °F /  26.6 °C 56.7 °F /  13.7 °C 29.70in /  1005.6hPa WSW 4.9mph /  7.9km/h 8.0mph /  12.9km/h 45% 0.00in /  0mm 171.0 W/m2
18:25 79.7 °F /  26.5 °C 56.5 °F /  13.6 °C 29.70in /  1005.6hPa West 6.0mph /  9.7km/h 7.0mph /  11.3km/h 45% 0.00in /  0mm 141.0 W/m2
18:30 79.3 °F /  26.3 °C 56.8 °F /  13.8 °C 29.70in /  1005.6hPa WSW 4.0mph /  6.4km/h 6.0mph /  9.7km/h 46% 0.00in /  0mm 114.0 W/m2
18:35 79.2 °F /  26.2 °C 56.7 °F /  13.7 °C 29.70in /  1005.6hPa WSW 2.0mph /  3.2km/h 7.0mph /  11.3km/h 46% 0.00in /  0mm 91.0 W/m2
18:40 79.2 °F /  26.2 °C 56.7 °F /  13.7 °C 29.70in /  1005.6hPa Calm   7.0mph /  11.3km/h 46% 0.00in /  0mm 63.0 W/m2
18:45 79.0 °F /  26.1 °C 57.0 °F /  13.9 °C 29.71in /  1006hPa Calm   8.0mph /  12.9km/h 47% 0.00in /  0mm 25.0 W/m2
18:50 78.4 °F /  25.8 °C 57.2 °F /  14 °C 29.71in /  1006hPa WSW 2.0mph /  3.2km/h 4.0mph /  6.4km/h 48% 0.00in /  0mm 19.0 W/m2
18:55 77.9 °F /  25.5 °C 56.7 °F /  13.7 °C 29.71in /  1006hPa WSW 2.0mph /  3.2km/h 8.0mph /  12.9km/h 48% 0.00in /  0mm 14.0 W/m2
19:00 77.4 °F /  25.2 °C 56.7 °F /  13.7 °C 29.71in /  1006hPa WSW 4.9mph /  7.9km/h 5.0mph /  8km/h 49% 0.00in /  0mm 11.0 W/m2
19:06 76.8 °F /  24.9 °C 56.3 °F /  13.5 °C 29.71in /  1006hPa SSW 2.0mph /  3.2km/h 6.0mph /  9.7km/h 49% 0.00in /  0mm 7.0 W/m2
19:11 76.3 °F /  24.6 °C 55.8 °F /  13.2 °C 29.71in /  1006hPa West 2.9mph /  4.7km/h 7.0mph /  11.3km/h 49% 0.00in /  0mm 5.0 W/m2
19:16 75.9 °F /  24.4 °C 55.9 °F /  13.3 °C 29.72in /  1006.3hPa WSW 0.9mph /  1.4km/h 7.0mph /  11.3km/h 50% 0.00in /  0mm 0.0 W/m2
19:21 75.6 °F /  24.2 °C 55.6 °F /  13.1 °C 29.72in /  1006.3hPa West 2.0mph /  3.2km/h 7.0mph /  11.3km/h 50% 0.00in /  0mm 0.0 W/m2
19:26 75.4 °F /  24.1 °C 55.4 °F /  13 °C 29.72in /  1006.3hPa WSW 0.9mph /  1.4km/h 7.0mph /  11.3km/h 50% 0.00in /  0mm 0.0 W/m2
19:31 75.0 °F /  23.9 °C 55.0 °F /  12.8 °C 29.72in /  1006.3hPa WSW 0.9mph /  1.4km/h 3.0mph /  4.8km/h 50% 0.00in /  0mm 0.0 W/m2
19:36 74.8 °F /  23.8 °C 55.6 °F /  13.1 °C 29.72in /  1006.3hPa West 2.0mph /  3.2km/h 4.0mph /  6.4km/h 51% 0.00in /  0mm 0.0 W/m2
19:41 74.7 °F /  23.7 °C 55.4 °F /  13 °C 29.72in /  1006.3hPa SW 0.9mph /  1.4km/h 1.0mph /  1.6km/h 51% 0.00in /  0mm 0.0 W/m2
19:46 74.5 °F /  23.6 °C 55.2 °F /  12.9 °C 29.72in /  1006.3hPa West 0.9mph /  1.4km/h 3.0mph /  4.8km/h 51% 0.00in /  0mm 0.0 W/m2
19:52 74.1 °F /  23.4 °C 54.9 °F /  12.7 °C 29.73in /  1006.7hPa Calm   3.0mph /  4.8km/h 51% 0.00in /  0mm 0.0 W/m2
19:57 73.9 °F /  23.3 °C 55.2 °F /  12.9 °C 29.73in /  1006.7hPa WSW 0.9mph /  1.4km/h 1.0mph /  1.6km/h 52% 0.00in /  0mm 0.0 W/m2
20:02 73.8 °F /  23.2 °C 55.0 °F /  12.8 °C 29.73in /  1006.7hPa West 0.9mph /  1.4km/h 3.0mph /  4.8km/h 52% 0.00in /  0mm 0.0 W/m2
20:07 73.6 °F /  23.1 °C 54.3 °F /  12.4 °C 29.73in /  1006.7hPa Calm   2.0mph /  3.2km/h 51% 0.00in /  0mm 0.0 W/m2
20:12 73.6 °F /  23.1 °C 54.9 °F /  12.7 °C 29.73in /  1006.7hPa Calm     52% 0.00in /  0mm 0.0 W/m2
20:17 73.2 °F /  22.9 °C 55.0 °F /  12.8 °C 29.73in /  1006.7hPa Calm   1.0mph /  1.6km/h 53% 0.00in /  0mm 0.0 W/m2
20:22 73.0 °F /  22.8 °C 54.3 °F /  12.4 °C 29.73in /  1006.7hPa Calm   1.0mph /  1.6km/h 52% 0.00in /  0mm 0.0 W/m2
20:27 72.9 °F /  22.7 °C 54.7 °F /  12.6 °C 29.73in /  1006.7hPa Calm     53% 0.00in /  0mm 0.0 W/m2
20:33 72.7 °F /  22.6 °C 54.5 °F /  12.5 °C 29.73in /  1006.7hPa Calm     53% 0.00in /  0mm 0.0 W/m2
20:38 72.5 °F /  22.5 °C 54.3 °F /  12.4 °C 29.73in /  1006.7hPa Calm     53% 0.00in /  0mm 0.0 W/m2
20:43 72.3 °F /  22.4 °C 54.7 °F /  12.6 °C 29.74in /  1007hPa Calm     54% 0.00in /  0mm 0.0 W/m2
20:48 72.0 °F /  22.2 °C 54.0 °F /  12.2 °C 29.74in /  1007hPa Calm     53% 0.00in /  0mm 0.0 W/m2
20:53 71.8 °F /  22.1 °C 53.8 °F /  12.1 °C 29.74in /  1007hPa Calm   1.0mph /  1.6km/h 53% 0.00in /  0mm 0.0 W/m2
20:58 71.4 °F /  21.9 °C 52.3 °F /  11.3 °C 29.74in /  1007hPa Calm   2.0mph /  3.2km/h 51% 0.00in /  0mm 0.0 W/m2
21:03 71.2 °F /  21.8 °C 52.7 °F /  11.5 °C 29.74in /  1007hPa Calm   1.0mph /  1.6km/h 52% 0.00in /  0mm 0.0 W/m2
21:08 71.2 °F /  21.8 °C 52.2 °F /  11.2 °C 29.74in /  1007hPa Calm   2.0mph /  3.2km/h 51% 0.00in /  0mm 0.0 W/m2
21:14 71.1 °F /  21.7 °C 52.0 °F /  11.1 °C 29.74in /  1007hPa WSW 0.9mph /  1.4km/h 4.0mph /  6.4km/h 51% 0.00in /  0mm 0.0 W/m2
21:20 71.1 °F /  21.7 °C 52.0 °F /  11.1 °C 29.74in /  1007hPa WSW 4.0mph /  6.4km/h 6.0mph /  9.7km/h 51% 0.00in /  0mm 0.0 W/m2
21:25 71.1 °F /  21.7 °C 51.4 °F /  10.8 °C 29.74in /  1007hPa WSW 2.9mph /  4.7km/h 3.0mph /  4.8km/h 50% 0.00in /  0mm 0.0 W/m2
21:30 71.1 °F /  21.7 °C 52.0 °F /  11.1 °C 29.75in /  1007.3hPa West 2.0mph /  3.2km/h 3.0mph /  4.8km/h 51% 0.00in /  0mm 0.0 W/m2
21:35 71.1 °F /  21.7 °C 52.0 °F /  11.1 °C 29.75in /  1007.3hPa WNW 4.9mph /  7.9km/h 6.0mph /  9.7km/h 51% 0.00in /  0mm 0.0 W/m2
21:40 70.9 °F /  21.6 °C 52.3 °F /  11.3 °C 29.75in /  1007.3hPa West 2.9mph /  4.7km/h 6.0mph /  9.7km/h 52% 0.00in /  0mm 0.0 W/m2
21:45 70.5 °F /  21.4 °C 52.5 °F /  11.4 °C 29.75in /  1007.3hPa WNW 2.0mph /  3.2km/h 5.0mph /  8km/h 53% 0.00in /  0mm 0.0 W/m2
21:50 70.3 °F /  21.3 °C 52.9 °F /  11.6 °C 29.75in /  1007.3hPa NW 0.9mph /  1.4km/h 2.0mph /  3.2km/h 54% 0.00in /  0mm 0.0 W/m2
21:55 70.2 °F /  21.2 °C 52.7 °F /  11.5 °C 29.74in /  1007hPa West 0.9mph /  1.4km/h 4.0mph /  6.4km/h 54% 0.00in /  0mm 0.0 W/m2
22:01 70.0 °F /  21.1 °C 53.1 °F /  11.7 °C 29.74in /  1007hPa Calm   2.0mph /  3.2km/h 55% 0.00in /  0mm 0.0 W/m2
22:06 69.6 °F /  20.9 °C 52.7 °F /  11.5 °C 29.75in /  1007.3hPa Calm     55% 0.00in /  0mm 0.0 W/m2
22:11 69.4 °F /  20.8 °C 53.1 °F /  11.7 °C 29.75in /  1007.3hPa WNW 0.9mph /  1.4km/h 2.0mph /  3.2km/h 56% 0.00in /  0mm 0.0 W/m2
22:17 69.3 °F /  20.7 °C 53.4 °F /  11.9 °C 29.75in /  1007.3hPa West 0.9mph /  1.4km/h 1.0mph /  1.6km/h 57% 0.00in /  0mm 0.0 W/m2
22:22 69.1 °F /  20.6 °C 53.6 °F /  12 °C 29.75in /  1007.3hPa Calm     58% 0.00in /  0mm 0.0 W/m2
22:27 68.7 °F /  20.4 °C 53.4 °F /  11.9 °C 29.75in /  1007.3hPa WNW 0.9mph /  1.4km/h 5.0mph /  8km/h 58% 0.00in /  0mm 0.0 W/m2
22:33 68.4 °F /  20.2 °C 53.1 °F /  11.7 °C 29.75in /  1007.3hPa Calm   4.0mph /  6.4km/h 58% 0.00in /  0mm 0.0 W/m2
22:38 68.4 °F /  20.2 °C 54.0 °F /  12.2 °C 29.75in /  1007.3hPa Calm   5.0mph /  8km/h 60% 0.00in /  0mm 0.0 W/m2
22:43 68.2 °F /  20.1 °C 53.2 °F /  11.8 °C 29.75in /  1007.3hPa WSW 0.9mph /  1.4km/h 2.0mph /  3.2km/h 59% 0.00in /  0mm 0.0 W/m2
22:49 67.8 °F /  19.9 °C 53.4 °F /  11.9 °C 29.75in /  1007.3hPa Calm   1.0mph /  1.6km/h 60% 0.00in /  0mm 0.0 W/m2
22:54 67.8 °F /  19.9 °C 53.4 °F /  11.9 °C 29.75in /  1007.3hPa West 0.9mph /  1.4km/h 1.0mph /  1.6km/h 60% 0.00in /  0mm 0.0 W/m2
22:59 67.6 °F /  19.8 °C 53.2 °F /  11.8 °C 29.75in /  1007.3hPa Calm   3.0mph /  4.8km/h 60% 0.00in /  0mm 0.0 W/m2
23:04 67.5 °F /  19.7 °C 53.6 °F /  12 °C 29.75in /  1007.3hPa Calm   2.0mph /  3.2km/h 61% 0.00in /  0mm 0.0 W/m2
23:09 67.3 °F /  19.6 °C 53.4 °F /  11.9 °C 29.75in /  1007.3hPa Calm   1.0mph /  1.6km/h 61% 0.00in /  0mm 0.0 W/m2
23:14 67.3 °F /  19.6 °C 53.8 °F /  12.1 °C 29.75in /  1007.3hPa Calm     62% 0.00in /  0mm 0.0 W/m2
23:19 67.1 °F /  19.5 °C 54.1 °F /  12.3 °C 29.75in /  1007.3hPa Calm     63% 0.00in /  0mm 0.0 W/m2
23:24 66.9 °F /  19.4 °C 54.0 °F /  12.2 °C 29.75in /  1007.3hPa Calm     63% 0.00in /  0mm 0.0 W/m2
23:29 66.7 °F /  19.3 °C 55.0 °F /  12.8 °C 29.75in /  1007.3hPa Calm     66% 0.00in /  0mm 0.0 W/m2
23:35 66.6 °F /  19.2 °C 54.9 °F /  12.7 °C 29.75in /  1007.3hPa Calm     66% 0.00in /  0mm 0.0 W/m2
23:40 66.2 °F /  19 °C 55.4 °F /  13 °C 29.75in /  1007.3hPa Calm     68% 0.00in /  0mm 0.0 W/m2
23:45 65.8 °F /  18.8 °C 55.8 °F /  13.2 °C 29.75in /  1007.3hPa Calm     70% 0.00in /  0mm 0.0 W/m2
23:50 65.7 °F /  18.7 °C 55.9 °F /  13.3 °C 29.75in /  1007.3hPa Calm     71% 0.00in /  0mm 0.0 W/m2
23:55 65.5 °F /  18.6 °C 55.4 °F /  13 °C 29.75in /  1007.3hPa Calm     70% 0.00in /  0mm 0.0 W/m2
Olympia, Windhoek, Namibia
Compliments of Weather Underground - 3.25 mb